Time;durP1;ratioP1;P1;durP2;ratioP2;P2;SDS_P1;SDS_P2;PMS_P1;PMS_P2;Temp;Humidity;BMP_temperature;BMP_pressure;BME280_temperature;BME280_humidity;BME280_pressure;Samples;Min_cycle;Max_cycle;Signal;HPM_P1;HPM_P2
2022/05/11 00:02:12;;;;;;;9.60;9.30;;;17.40;99.90;;;;;;5100904;28;20260;-80
2022/05/11 00:04:40;;;;;;;9.50;9.20;;;17.40;99.90;;;;;;5099978;28;20714;-80
2022/05/11 00:07:10;;;;;;;9.05;8.85;;;17.40;99.90;;;;;;5102088;28;20218;-80
2022/05/11 00:09:38;;;;;;;9.05;8.85;;;17.40;99.90;;;;;;5100551;28;20256;-80
2022/05/11 00:12:17;;;;;;;9.05;8.85;;;17.40;99.90;;;;;;5100497;28;20246;-80
2022/05/11 00:14:46;;;;;;;9.05;8.85;;;17.40;99.90;;;;;;5100501;28;20218;-80
2022/05/11 00:17:16;;;;;;;9.63;9.32;;;17.40;99.90;;;;;;5100548;28;20231;-80
2022/05/11 00:19:46;;;;;;;9.60;9.30;;;17.30;99.90;;;;;;5100912;28;20241;-80
2022/05/11 00:22:26;;;;;;;9.68;9.38;;;17.30;99.90;;;;;;5110872;28;20229;-80
2022/05/11 00:24:59;;;;;;;9.60;9.30;;;17.30;99.90;;;;;;5112148;28;20229;-80
2022/05/11 00:27:34;;;;;;;9.32;9.02;;;17.30;99.90;;;;;;5106634;28;20229;-80
2022/05/11 00:30:11;;;;;;;9.35;9.05;;;17.20;99.90;;;;;;5106369;28;20240;-80
2022/05/11 00:32:39;;;;;;;9.65;9.35;;;17.20;99.90;;;;;;5106959;28;20237;-80
2022/05/11 00:35:08;;;;;;;9.93;9.63;;;17.20;99.90;;;;;;5105775;28;20287;-80
2022/05/11 00:37:37;;;;;;;9.68;9.38;;;17.20;99.90;;;;;;5104253;28;20233;-81
2022/05/11 00:40:07;;;;;;;9.77;9.48;;;17.20;99.90;;;;;;5104224;28;20287;-81
2022/05/11 00:45:24;;;;;;;9.82;9.52;;;17.10;99.90;;;;;;5103755;28;20233;-81
2022/05/11 00:49:33;;;;;;;9.70;9.40;;;17.10;99.90;;;;;;5103574;28;20233;-80
2022/05/11 00:50:49;;;;;;;9.77;9.48;;;17.00;99.90;;;;;;5102718;28;20233;-81
2022/05/11 00:53:19;;;;;;;9.82;9.52;;;17.00;99.90;;;;;;5103498;28;20233;-81
2022/05/11 00:58:45;;;;;;;10.10;9.80;;;17.00;99.90;;;;;;5103837;28;20272;-81
2022/05/11 01:01:14;;;;;;;10.10;9.80;;;16.90;99.90;;;;;;5104304;28;20229;-80
2022/05/11 01:03:52;;;;;;;9.85;9.55;;;16.90;99.90;;;;;;5116284;28;21023;-80
2022/05/11 01:06:21;;;;;;;10.00;9.70;;;16.80;99.90;;;;;;5107276;28;20240;-81
2022/05/11 01:08:51;;;;;;;9.80;9.50;;;16.80;99.90;;;;;;5104467;28;20236;-81
2022/05/11 01:11:19;;;;;;;9.75;9.45;;;16.70;99.90;;;;;;5104415;28;20221;-81
2022/05/11 01:14:01;;;;;;;9.88;9.57;;;16.60;99.90;;;;;;5103765;28;20228;-80
2022/05/11 01:16:30;;;;;;;9.95;9.65;;;16.60;99.90;;;;;;5103085;28;20240;-80
2022/05/11 01:19:00;;;;;;;9.80;9.50;;;16.60;99.90;;;;;;5103473;28;20226;-81
2022/05/11 01:21:43;;;;;;;10.10;9.80;;;16.60;99.90;;;;;;5103456;28;20260;-80
2022/05/11 01:24:30;;;;;;;10.18;9.88;;;16.60;99.90;;;;;;5134208;22;20244;-85
2022/05/11 01:27:00;;;;;;;9.90;9.60;;;16.50;99.90;;;;;;5083444;28;20256;-84
2022/05/11 01:29:29;;;;;;;10.32;10.02;;;16.50;99.90;;;;;;5084005;28;20292;-84
2022/05/11 01:31:59;;;;;;;10.07;9.77;;;16.50;99.90;;;;;;5100039;28;20230;-84
2022/05/11 01:34:28;;;;;;;10.00;9.70;;;16.50;99.90;;;;;;5100089;28;20234;-84
2022/05/11 01:37:01;;;;;;;10.07;9.77;;;16.50;99.90;;;;;;5100828;28;20236;-85
2022/05/11 01:39:32;;;;;;;9.85;9.55;;;16.50;99.90;;;;;;5091443;28;20276;-85
2022/05/11 01:41:59;;;;;;;9.70;9.40;;;16.40;99.90;;;;;;5100509;28;20240;-85
2022/05/11 01:44:28;;;;;;;9.77;9.48;;;16.40;99.90;;;;;;5099878;28;20237;-85
2022/05/11 01:46:59;;;;;;;9.60;9.30;;;16.40;99.90;;;;;;5100124;28;20248;-85
2022/05/11 01:49:28;;;;;;;9.70;9.40;;;16.40;99.90;;;;;;5100362;28;20243;-86
2022/05/11 01:51:56;;;;;;;9.90;9.60;;;16.40;99.90;;;;;;5100531;28;20312;-86
2022/05/11 01:54:25;;;;;;;9.77;9.48;;;16.40;99.90;;;;;;5112269;27;20252;-84
2022/05/11 01:57:06;;;;;;;9.75;9.45;;;16.30;99.90;;;;;;5120922;27;20233;-84
2022/05/11 01:59:34;;;;;;;9.65;9.35;;;16.30;99.90;;;;;;5120815;28;20217;-86
2022/05/11 02:02:03;;;;;;;9.35;9.05;;;16.30;99.90;;;;;;5120766;27;20398;-84
2022/05/11 02:10:00;;;;;;;9.73;9.43;;;16.20;99.90;;;;;;5119883;27;20220;-84
2022/05/11 02:12:30;;;;;;;9.27;8.98;;;16.20;99.90;;;;;;5112882;28;20225;-85
2022/05/11 02:14:58;;;;;;;9.40;9.10;;;16.10;99.90;;;;;;5104792;27;20221;-84
2022/05/11 02:17:25;;;;;;;9.32;9.02;;;16.10;99.90;;;;;;5118491;27;20229;-85
2022/05/11 02:19:55;;;;;;;10.00;9.70;;;16.10;99.90;;;;;;5118833;28;20213;-83
2022/05/11 02:22:24;;;;;;;9.82;9.52;;;16.10;99.90;;;;;;5102641;28;20264;-84
2022/05/11 02:24:54;;;;;;;10.20;9.90;;;16.00;99.90;;;;;;5119395;28;20217;-85
2022/05/11 02:27:23;;;;;;;9.88;9.57;;;16.00;99.90;;;;;;5119127;27;20226;-84
2022/05/11 02:30:04;;;;;;;10.00;9.70;;;16.00;99.90;;;;;;5113255;28;20236;-86
2022/05/11 02:32:32;;;;;;;10.00;9.70;;;16.00;99.90;;;;;;5103551;28;20657;-87
2022/05/11 02:35:18;;;;;;;9.80;9.50;;;15.90;99.90;;;;;;5103478;28;20229;-86
2022/05/11 02:37:59;;;;;;;9.90;9.60;;;15.90;99.90;;;;;;5100619;28;20225;-85
2022/05/11 02:40:29;;;;;;;9.75;9.45;;;15.90;99.90;;;;;;5111457;27;20302;-86
2022/05/11 02:42:57;;;;;;;10.02;9.73;;;15.80;99.90;;;;;;5100445;28;20241;-85
2022/05/11 02:45:28;;;;;;;10.02;9.73;;;15.80;99.90;;;;;;5099914;28;20253;-85
2022/05/11 02:47:57;;;;;;;10.00;9.70;;;15.70;99.90;;;;;;5099000;28;20241;-85
2022/05/11 02:50:36;;;;;;;10.32;10.02;;;15.60;99.90;;;;;;5098687;28;20209;-85
2022/05/11 02:53:07;;;;;;;10.40;10.10;;;15.50;99.90;;;;;;5098577;28;20259;-85
2022/05/11 02:55:40;;;;;;;10.48;10.18;;;15.50;99.90;;;;;;5099103;28;20221;-85
2022/05/11 02:58:10;;;;;;;10.10;9.80;;;15.30;99.90;;;;;;5100078;28;20312;-87
2022/05/11 03:00:48;;;;;;;9.90;9.60;;;15.30;99.90;;;;;;5098873;28;20229;-87
2022/05/11 03:03:17;;;;;;;10.18;9.88;;;15.30;99.90;;;;;;5098726;28;20232;-85
2022/05/11 03:05:47;;;;;;;10.20;9.90;;;15.30;99.90;;;;;;5097447;28;20386;-85
2022/05/11 03:08:16;;;;;;;10.50;10.20;;;15.20;99.90;;;;;;5098020;28;20247;-85
2022/05/11 03:10:47;;;;;;;10.07;9.77;;;15.20;99.90;;;;;;5098755;28;20236;-85
2022/05/11 03:13:15;;;;;;;10.00;9.70;;;15.20;99.90;;;;;;5097958;28;20268;-85
2022/05/11 03:15:55;;;;;;;9.65;9.35;;;15.20;99.90;;;;;;5099524;28;20237;-86
2022/05/11 03:18:23;;;;;;;9.30;9.00;;;15.20;99.90;;;;;;5098349;28;20244;-86
2022/05/11 03:20:52;;;;;;;9.80;9.50;;;15.10;99.90;;;;;;5097020;28;20279;-85
2022/05/11 03:23:21;;;;;;;10.30;10.00;;;15.10;99.90;;;;;;5097243;28;20233;-85
2022/05/11 03:25:51;;;;;;;10.38;10.07;;;15.20;99.90;;;;;;5097055;28;20240;-84
2022/05/11 03:28:20;;;;;;;10.60;10.30;;;15.10;99.90;;;;;;5097484;28;20299;-85
2022/05/11 03:31:00;;;;;;;10.52;10.23;;;15.10;99.90;;;;;;5097941;28;20233;-85
2022/05/11 03:36:16;;;;;;;10.70;10.40;;;15.10;99.90;;;;;;5097772;28;20209;-85
2022/05/11 03:38:47;;;;;;;10.60;10.30;;;15.00;99.90;;;;;;5097409;28;20292;-86
2022/05/11 03:41:16;;;;;;;10.90;10.60;;;15.00;99.90;;;;;;5098349;28;20225;-85
2022/05/11 03:43:46;;;;;;;10.80;10.50;;;15.00;99.90;;;;;;5097613;28;20402;-85
2022/05/11 03:46:17;;;;;;;10.35;10.05;;;15.00;99.90;;;;;;5096870;28;20440;-85
2022/05/11 03:48:45;;;;;;;10.13;9.82;;;14.90;99.90;;;;;;5097481;28;20216;-85
2022/05/11 03:51:14;;;;;;;10.30;10.00;;;14.90;99.90;;;;;;5097466;28;20693;-86
2022/05/11 03:53:43;;;;;;;10.48;10.18;;;14.90;99.90;;;;;;5097377;28;20259;-86
2022/05/11 03:56:12;;;;;;;10.02;9.73;;;14.90;99.90;;;;;;5096852;28;20344;-85
2022/05/11 03:58:42;;;;;;;10.30;10.00;;;14.90;99.90;;;;;;5097085;28;20229;-86
2022/05/11 04:01:11;;;;;;;10.80;10.50;;;14.90;99.90;;;;;;5097295;28;20224;-85
2022/05/11 04:03:45;;;;;;;10.70;10.40;;;14.90;99.90;;;;;;5098162;28;20250;-86
2022/05/11 04:06:13;;;;;;;10.30;10.00;;;14.80;99.90;;;;;;5101348;28;20247;-86
2022/05/11 04:08:42;;;;;;;10.40;10.10;;;14.80;99.90;;;;;;5101263;28;20218;-86
2022/05/11 04:11:11;;;;;;;10.65;10.35;;;14.80;99.90;;;;;;5101481;28;20229;-86
2022/05/11 04:13:49;;;;;;;10.60;10.30;;;14.80;99.90;;;;;;5100378;28;20225;-86
2022/05/11 04:16:17;;;;;;;10.90;10.60;;;14.80;99.90;;;;;;5100852;28;20217;-85
2022/05/11 04:18:49;;;;;;;10.73;10.43;;;14.80;99.90;;;;;;5100079;28;20229;-86
2022/05/11 04:21:17;;;;;;;10.85;10.55;;;14.80;99.90;;;;;;5100538;28;20232;-86
2022/05/11 04:23:45;;;;;;;10.70;10.40;;;14.70;99.90;;;;;;5099732;28;20233;-84
2022/05/11 04:26:14;;;;;;;10.90;10.60;;;14.80;99.90;;;;;;5100068;28;20323;-86
2022/05/11 04:28:44;;;;;;;10.73;10.43;;;14.80;99.90;;;;;;5100813;28;20225;-86
2022/05/11 04:31:14;;;;;;;10.38;10.07;;;14.80;99.90;;;;;;5101250;28;20255;-87
2022/05/11 04:33:43;;;;;;;10.70;10.40;;;14.90;99.90;;;;;;5103888;28;20236;-83
2022/05/11 04:36:23;;;;;;;10.30;10.00;;;15.00;99.90;;;;;;5101026;28;20233;-85
2022/05/11 04:38:50;;;;;;;10.32;10.02;;;15.00;99.90;;;;;;5108951;28;20232;-85
2022/05/11 04:41:21;;;;;;;10.40;10.10;;;14.90;99.90;;;;;;5108273;28;20264;-85
2022/05/11 04:43:50;;;;;;;10.43;10.13;;;14.90;99.90;;;;;;5102130;28;20284;-85
2022/05/11 04:46:19;;;;;;;10.57;10.27;;;14.90;99.90;;;;;;5101052;28;20233;-86
2022/05/11 04:48:49;;;;;;;10.50;10.20;;;14.90;99.90;;;;;;5102322;28;20251;-86
2022/05/11 04:51:20;;;;;;;10.60;10.30;;;14.90;99.90;;;;;;5119655;27;20267;-83
2022/05/11 04:53:48;;;;;;;10.35;10.05;;;15.00;99.90;;;;;;5120308;27;20225;-83
2022/05/11 04:56:17;;;;;;;10.93;10.63;;;15.00;99.90;;;;;;5120274;27;20244;-84
2022/05/11 04:58:47;;;;;;;10.15;9.85;;;15.00;99.90;;;;;;5119963;28;20287;-85
2022/05/11 05:01:17;;;;;;;10.40;10.10;;;15.10;99.90;;;;;;5119515;27;20244;-84
2022/05/11 05:03:46;;;;;;;10.48;10.18;;;15.20;99.90;;;;;;5115210;28;20241;-85
2022/05/11 05:06:14;;;;;;;10.40;10.10;;;15.30;99.90;;;;;;5115766;28;20237;-85
2022/05/11 05:08:55;;;;;;;10.60;10.30;;;15.30;99.90;;;;;;5103864;28;20287;-85
2022/05/11 05:11:23;;;;;;;10.55;10.25;;;15.30;99.90;;;;;;5105603;28;20355;-85
2022/05/11 05:13:51;;;;;;;10.52;10.23;;;15.30;99.90;;;;;;5103649;28;20758;-85
2022/05/11 05:16:21;;;;;;;10.55;10.25;;;15.30;99.90;;;;;;5102844;28;20237;-84
2022/05/11 05:18:50;;;;;;;10.30;10.00;;;15.30;99.90;;;;;;5101583;28;20226;-85
2022/05/11 05:21:20;;;;;;;10.20;9.90;;;15.40;99.90;;;;;;5102672;28;20284;-85
2022/05/11 05:24:00;;;;;;;10.38;10.07;;;15.40;99.90;;;;;;5098565;28;20249;-85
2022/05/11 05:26:29;;;;;;;10.30;10.00;;;15.50;99.90;;;;;;5099838;28;20238;-85
2022/05/11 05:31:44;;;;;;;10.50;10.20;;;15.60;99.90;;;;;;5100839;28;20210;-84
2022/05/11 05:34:13;;;;;;;10.20;9.90;;;15.70;99.90;;;;;;5104861;28;20234;-86
2022/05/11 05:36:45;;;;;;;10.00;9.70;;;15.80;99.90;;;;;;5102784;28;20236;-86
2022/05/11 05:39:25;;;;;;;10.10;9.80;;;15.90;99.90;;;;;;5101479;28;20210;-85
2022/05/11 05:41:53;;;;;;;10.18;9.88;;;16.00;99.90;;;;;;5101492;28;20287;-85
2022/05/11 05:44:23;;;;;;;10.35;10.05;;;16.10;99.90;;;;;;5100288;28;20244;-86
2022/05/11 05:46:51;;;;;;;10.40;10.10;;;16.20;99.90;;;;;;5100832;28;20237;-85
2022/05/11 05:49:20;;;;;;;10.20;9.90;;;16.30;99.90;;;;;;5099021;28;20287;-85
2022/05/11 05:51:51;;;;;;;10.23;9.93;;;16.40;99.90;;;;;;5098845;28;20307;-86
2022/05/11 05:54:22;;;;;;;10.32;10.02;;;16.50;99.90;;;;;;5100076;28;20245;-86
2022/05/11 05:56:50;;;;;;;10.10;9.80;;;16.50;99.90;;;;;;5100996;28;20237;-86
2022/05/11 05:59:19;;;;;;;10.20;9.90;;;16.60;99.90;;;;;;5100807;28;20228;-85
2022/05/11 06:01:49;;;;;;;9.88;9.57;;;16.60;99.90;;;;;;5100941;28;20236;-85
2022/05/11 06:04:17;;;;;;;9.50;9.20;;;16.70;99.90;;;;;;5100719;28;20229;-83
2022/05/11 06:06:46;;;;;;;9.50;9.20;;;16.80;99.90;;;;;;5100441;28;20240;-84
2022/05/11 06:09:16;;;;;;;10.10;9.80;;;16.80;99.90;;;;;;5111615;27;20243;-83
2022/05/11 06:11:56;;;;;;;9.95;9.65;;;16.90;99.90;;;;;;5119599;27;20209;-84
2022/05/11 06:14:24;;;;;;;9.98;9.68;;;17.00;99.90;;;;;;5115599;27;20248;-85
2022/05/11 06:16:53;;;;;;;10.10;9.80;;;17.10;99.90;;;;;;5099175;28;20310;-86
2022/05/11 06:19:25;;;;;;;10.10;9.80;;;17.20;99.90;;;;;;5098671;28;20240;-86
2022/05/11 06:21:53;;;;;;;10.10;9.80;;;17.30;99.90;;;;;;5098520;28;20244;-85
2022/05/11 06:24:22;;;;;;;10.10;9.80;;;17.40;99.90;;;;;;5098130;28;20241;-86
2022/05/11 06:27:02;;;;;;;10.32;10.02;;;17.60;99.90;;;;;;5098353;28;20248;-85
2022/05/11 06:29:30;;;;;;;10.27;9.98;;;17.70;99.90;;;;;;5098985;28;20233;-86
2022/05/11 06:31:58;;;;;;;10.38;10.07;;;17.90;99.90;;;;;;5098630;28;20228;-86
2022/05/11 06:34:28;;;;;;;10.40;10.10;;;18.00;99.90;;;;;;5098183;28;20240;-86
2022/05/11 06:36:57;;;;;;;10.00;9.70;;;18.10;99.90;;;;;;5098243;28;20236;-86
2022/05/11 06:39:28;;;;;;;10.55;10.25;;;18.30;99.90;;;;;;5097838;28;20270;-86
2022/05/11 06:41:59;;;;;;;10.38;10.07;;;18.40;99.90;;;;;;5097993;28;20230;-86
2022/05/11 06:44:27;;;;;;;10.10;9.80;;;18.50;99.90;;;;;;5098115;28;20241;-86
2022/05/11 06:46:55;;;;;;;9.82;9.52;;;18.60;99.90;;;;;;5098438;28;20332;-86
2022/05/11 06:49:25;;;;;;;9.95;9.65;;;18.70;99.90;;;;;;5098107;28;20218;-85
2022/05/11 06:51:54;;;;;;;10.00;9.70;;;18.80;99.90;;;;;;5097452;28;20230;-86
2022/05/11 06:59:59;;;;;;;10.50;10.20;;;19.30;99.90;;;;;;5100481;28;20222;-87
2022/05/11 07:02:27;;;;;;;10.35;10.05;;;19.50;99.90;;;;;;5101063;28;20210;-85
2022/05/11 07:04:58;;;;;;;10.23;9.93;;;19.60;99.90;;;;;;5102486;28;20287;-84
2022/05/11 07:07:26;;;;;;;10.00;9.70;;;19.80;99.90;;;;;;5098892;28;20287;-87
2022/05/11 07:09:56;;;;;;;10.00;9.70;;;19.90;99.90;;;;;;5099567;28;20225;-82
2022/05/11 07:12:37;;;;;;;10.27;9.98;;;20.10;99.90;;;;;;5099433;28;20221;-83
2022/05/11 07:15:09;;;;;;;10.68;10.38;;;20.20;99.90;;;;;;5099373;28;20300;-82
2022/05/11 07:17:42;;;;;;;10.65;10.35;;;20.30;99.90;;;;;;5100106;28;20213;-82
2022/05/11 07:20:14;;;;;;;10.43;10.13;;;20.50;99.90;;;;;;5100976;28;20243;-83
2022/05/11 07:22:42;;;;;;;10.73;10.43;;;20.60;99.90;;;;;;5101002;28;20222;-82
2022/05/11 07:25:13;;;;;;;10.80;10.50;;;20.70;99.90;;;;;;5150375;22;20235;-80
2022/05/11 07:27:44;;;;;;;11.10;10.80;;;20.90;99.90;;;;;;5118526;28;20316;-79
2022/05/11 07:30:16;;;;;;;11.10;10.80;;;21.00;99.90;;;;;;5119639;28;20232;-77
2022/05/11 07:32:46;;;;;;;10.90;10.60;;;21.10;99.90;;;;;;5107101;28;20280;-77
2022/05/11 07:35:17;;;;;;;10.80;10.50;;;21.30;99.90;;;;;;5098713;28;20229;-77
2022/05/11 07:37:48;;;;;;;10.90;10.60;;;21.30;99.90;;;;;;5094831;28;20226;-80
2022/05/11 07:40:18;;;;;;;10.93;10.63;;;21.40;99.90;;;;;;5091762;28;20218;-80
2022/05/11 07:42:49;;;;;;;10.73;10.43;;;21.50;99.90;;;;;;5091347;28;20210;-80
2022/05/11 07:45:19;;;;;;;11.00;10.70;;;21.60;99.90;;;;;;5108176;28;20244;-80
2022/05/11 07:47:46;;;;;;;10.82;10.52;;;21.70;99.90;;;;;;5100688;28;20237;-80
2022/05/11 07:50:15;;;;;;;10.90;10.60;;;21.90;99.90;;;;;;5088859;28;20222;-81
2022/05/11 07:52:44;;;;;;;10.82;10.52;;;22.00;99.90;;;;;;5102110;28;20218;-80
2022/05/11 07:55:14;;;;;;;10.82;10.52;;;22.10;99.90;;;;;;5088234;28;20230;-81
2022/05/11 08:00:42;;;;;;;10.95;10.65;;;22.30;99.90;;;;;;5056784;28;20260;-80
2022/05/11 08:03:17;;;;;;;10.70;10.40;;;22.40;99.90;;;;;;5088334;28;20291;-81
2022/05/11 08:05:47;;;;;;;10.50;10.20;;;22.40;99.90;;;;;;5095094;28;20233;-81
2022/05/11 08:08:16;;;;;;;10.63;10.32;;;22.50;99.90;;;;;;5105451;28;20232;-81
2022/05/11 08:10:48;;;;;;;10.65;10.35;;;22.60;99.90;;;;;;5113320;28;20217;-81
2022/05/11 08:13:17;;;;;;;11.00;10.70;;;22.80;99.90;;;;;;5101481;28;20229;-81
2022/05/11 08:18:31;;;;;;;10.63;10.32;;;23.00;99.90;;;;;;5087877;28;20234;-80
2022/05/11 08:21:00;;;;;;;10.40;10.10;;;23.00;99.90;;;;;;5107076;28;20285;-81
2022/05/11 08:23:31;;;;;;;10.10;9.80;;;23.00;99.90;;;;;;5106166;28;20245;-79
2022/05/11 08:26:00;;;;;;;9.70;9.40;;;23.00;99.90;;;;;;5104536;28;20241;-79
2022/05/11 08:28:29;;;;;;;9.50;9.20;;;23.00;99.90;;;;;;5104232;28;20256;-79
2022/05/11 08:33:47;;;;;;;9.77;9.48;;;23.20;99.90;;;;;;5104969;28;20209;-80
2022/05/11 08:36:18;;;;;;;9.70;9.40;;;23.40;99.90;;;;;;5106442;28;20240;-79
2022/05/11 08:38:55;;;;;;;9.68;9.38;;;23.60;99.90;;;;;;5106693;28;20237;-79
2022/05/11 08:41:35;;;;;;;10.50;10.20;;;23.70;99.90;;;;;;5104844;28;20225;-79
2022/05/11 08:44:09;;;;;;;10.30;10.00;;;23.90;99.90;;;;;;5104770;28;20225;-80
2022/05/11 08:47:08;;;;;;;9.77;9.48;;;24.10;99.90;;;;;;5105970;28;20251;-79
2022/05/11 08:49:53;;;;;;;9.65;9.35;;;24.30;99.90;;;;;;5104505;28;20283;-78
2022/05/11 08:52:34;;;;;;;10.10;9.80;;;24.40;99.90;;;;;;5099454;28;20233;-77
2022/05/11 08:55:11;;;;;;;9.73;9.43;;;24.40;99.90;;;;;;5103982;28;20237;-78
2022/05/11 08:57:41;;;;;;;10.20;9.90;;;24.50;99.90;;;;;;5103952;28;20248;-78
2022/05/11 09:00:16;;;;;;;10.40;10.10;;;24.50;99.90;;;;;;5103324;28;20225;-79
2022/05/11 09:02:55;;;;;;;10.30;10.00;;;24.70;99.90;;;;;;5103181;28;20233;-78
2022/05/11 09:05:27;;;;;;;10.00;9.70;;;24.70;99.90;;;;;;5103539;28;20275;-78
2022/05/11 09:08:06;;;;;;;10.40;10.10;;;24.70;99.90;;;;;;5103688;28;20233;-79
2022/05/11 09:10:41;;;;;;;10.18;9.88;;;24.90;99.90;;;;;;5103368;28;20279;-78
2022/05/11 09:13:13;;;;;;;10.32;10.02;;;25.00;99.90;;;;;;5103714;28;20237;-79
2022/05/11 09:15:59;;;;;;;10.20;9.90;;;25.20;99.90;;;;;;5104178;28;20239;-79
2022/05/11 09:18:45;;;;;;;10.10;9.80;;;25.50;99.90;;;;;;5103074;28;20241;-78
2022/05/11 09:21:32;;;;;;;9.90;9.60;;;25.50;99.90;;;;;;5104273;28;20244;-78
2022/05/11 09:24:27;;;;;;;9.65;9.35;;;25.60;99.90;;;;;;5103520;28;20233;-78
2022/05/11 09:30:01;;;;;;;10.57;10.27;;;25.80;99.90;;;;;;5104152;28;20221;-79
2022/05/11 09:32:42;;;;;;;10.70;10.40;;;26.00;99.90;;;;;;5104252;28;20240;-80
2022/05/11 09:35:29;;;;;;;10.65;10.35;;;26.20;99.90;;;;;;5103310;28;20237;-79
2022/05/11 09:38:07;;;;;;;10.60;10.30;;;26.40;99.90;;;;;;5104782;28;20735;-78
2022/05/11 09:40:56;;;;;;;10.70;10.40;;;26.40;99.90;;;;;;5085699;28;20238;-80
2022/05/11 09:43:35;;;;;;;10.60;10.30;;;26.50;99.90;;;;;;5083333;28;20241;-79
2022/05/11 09:46:23;;;;;;;10.80;10.50;;;26.50;99.90;;;;;;5096494;28;20252;-79
2022/05/11 09:49:06;;;;;;;11.10;10.80;;;26.50;99.90;;;;;;5101990;28;20225;-79
2022/05/11 09:51:54;;;;;;;10.60;10.30;;;26.30;99.90;;;;;;5103075;28;20237;-79
2022/05/11 09:54:33;;;;;;;10.52;10.23;;;26.30;99.90;;;;;;5103071;28;20246;-79
2022/05/11 09:57:09;;;;;;;10.90;10.60;;;26.50;99.90;;;;;;5102516;28;20221;-78
2022/05/11 10:02:30;;;;;;;10.65;10.35;;;27.10;99.90;;;;;;5102352;28;20225;-81
2022/05/11 10:05:04;;;;;;;10.52;10.23;;;27.20;99.90;;;;;;5100951;28;20247;-79
2022/05/11 10:07:44;;;;;;;10.80;10.50;;;27.10;99.90;;;;;;5102602;28;20236;-78
2022/05/11 10:10:27;;;;;;;10.63;10.32;;;27.20;99.90;;;;;;5101527;28;20227;-78
2022/05/11 10:13:01;;;;;;;10.60;10.30;;;27.30;99.90;;;;;;5099910;28;20233;-78
2022/05/11 10:24:16;;;;;;;10.63;10.32;;;27.50;99.90;;;;;;5102125;28;20257;-77
2022/05/11 10:27:03;;;;;;;10.77;10.48;;;27.70;99.90;;;;;;5101413;28;20225;-77
2022/05/11 10:29:58;;;;;;;10.82;10.52;;;28.10;99.90;;;;;;5100463;28;20229;-77
2022/05/11 10:32:37;;;;;;;10.70;10.40;;;28.30;99.90;;;;;;5100963;28;20227;-79
2022/05/11 10:35:15;;;;;;;10.70;10.40;;;28.10;99.90;;;;;;5100878;28;20283;-77
2022/05/11 10:38:12;;;;;;;10.20;9.90;;;27.90;99.90;;;;;;5101013;28;20290;-78
2022/05/11 10:40:51;;;;;;;10.27;9.98;;;27.90;99.90;;;;;;5100991;28;20218;-77
2022/05/11 10:43:38;;;;;;;10.30;10.00;;;27.70;99.90;;;;;;5100614;28;20237;-77
2022/05/11 10:46:15;;;;;;;10.27;9.98;;;27.90;99.90;;;;;;5100939;28;20314;-78
2022/05/11 10:49:10;;;;;;;10.30;10.00;;;28.20;99.90;;;;;;5094811;28;20226;-78
2022/05/11 10:51:48;;;;;;;10.23;9.93;;;27.90;99.90;;;;;;5081157;28;20218;-78
2022/05/11 10:54:28;;;;;;;10.38;10.07;;;28.20;99.90;;;;;;5091846;28;20279;-80
2022/05/11 10:57:13;;;;;;;10.30;10.00;;;28.20;99.90;;;;;;5083116;28;20238;-78
2022/05/11 11:00:10;;;;;;;10.45;10.15;;;28.30;99.90;;;;;;5081168;28;20218;-77
2022/05/11 11:03:14;;;;;;;10.55;10.25;;;28.20;99.90;;;;;;5078243;28;20241;-76
2022/05/11 11:08:58;;;;;;;10.70;10.40;;;28.60;99.90;;;;;;5078728;28;20241;-77
2022/05/11 11:11:37;;;;;;;10.73;10.43;;;28.80;99.90;;;;;;5078826;28;20251;-77
2022/05/11 11:14:14;;;;;;;10.55;10.25;;;28.80;99.90;;;;;;5078165;28;20299;-77
2022/05/11 11:16:43;;;;;;;10.70;10.40;;;28.90;99.90;;;;;;5077625;28;20229;-77
2022/05/11 11:19:12;;;;;;;10.50;10.20;;;29.10;99.90;;;;;;5078468;28;20261;-77
2022/05/11 11:21:43;;;;;;;10.68;10.38;;;29.00;99.90;;;;;;5078418;28;20238;-77
2022/05/11 11:24:22;;;;;;;10.55;10.25;;;29.00;99.90;;;;;;5078085;28;20241;-77
2022/05/11 11:26:58;;;;;;;10.30;10.00;;;29.00;99.90;;;;;;5078326;28;20210;-78
2022/05/11 11:29:38;;;;;;;10.30;10.00;;;29.00;99.90;;;;;;5078374;28;20226;-78
2022/05/11 11:32:17;;;;;;;10.60;10.30;;;29.20;99.90;;;;;;5079394;28;21109;-78
2022/05/11 11:37:47;;;;;;;10.35;10.05;;;29.20;99.90;;;;;;5110129;28;20201;-77
2022/05/11 11:40:37;;;;;;;10.50;10.20;;;29.40;99.90;;;;;;5106185;28;20233;-78
2022/05/11 11:43:44;;;;;;;10.50;10.20;;;29.40;99.90;;;;;;5098017;28;20282;-77
2022/05/11 11:46:38;;;;;;;10.65;10.35;;;29.20;99.90;;;;;;5096609;28;20221;-77
2022/05/11 11:49:10;;;;;;;11.20;10.90;;;29.60;99.90;;;;;;5083617;28;20234;-77
2022/05/11 11:52:04;;;;;;;10.90;10.60;;;29.70;99.90;;;;;;5077628;28;20233;-77
2022/05/11 11:54:50;;;;;;;11.20;10.90;;;29.90;99.90;;;;;;5077434;28;20240;-79
2022/05/11 11:57:30;;;;;;;10.70;10.40;;;29.70;99.90;;;;;;5078750;28;20233;-78
2022/05/11 12:00:00;;;;;;;10.70;10.40;;;29.60;99.90;;;;;;5078715;28;20316;-78
2022/05/11 12:02:37;;;;;;;10.70;10.40;;;29.40;99.90;;;;;;5078644;28;20230;-78
2022/05/11 12:05:26;;;;;;;11.00;10.70;;;29.40;99.90;;;;;;5078586;28;20230;-79
2022/05/11 12:16:53;;;;;;;11.68;11.27;;;30.40;99.90;;;;;;5032454;28;20326;-79
2022/05/11 12:19:27;;;;;;;11.60;11.30;;;30.50;99.90;;;;;;5080565;28;20234;-78
2022/05/11 12:22:10;;;;;;;11.90;11.50;;;30.70;99.90;;;;;;5080259;28;20228;-79
2022/05/11 12:24:43;;;;;;;11.90;11.50;;;30.60;99.90;;;;;;5079587;28;20411;-80
2022/05/11 12:27:15;;;;;;;11.70;11.32;;;30.30;99.90;;;;;;5083396;28;20229;-79
2022/05/11 12:30:04;;;;;;;11.73;11.38;;;30.10;99.90;;;;;;5082723;28;20298;-78
2022/05/11 12:32:38;;;;;;;11.25;10.95;;;30.00;99.90;;;;;;5084738;28;20222;-81
2022/05/11 12:35:18;;;;;;;11.45;11.15;;;30.10;99.90;;;;;;5083670;28;20255;-82
2022/05/11 12:37:55;;;;;;;11.43;11.13;;;30.20;99.90;;;;;;5083426;28;20283;-77
2022/05/11 12:40:24;;;;;;;11.00;10.70;;;30.50;99.90;;;;;;5080739;28;20225;-75
2022/05/11 12:42:54;;;;;;;11.20;10.90;;;30.60;99.90;;;;;;5085210;28;20222;-78
2022/05/11 12:45:25;;;;;;;11.20;10.90;;;30.20;99.90;;;;;;5108518;28;20252;-77
2022/05/11 12:47:59;;;;;;;11.30;11.00;;;30.40;99.90;;;;;;5101719;28;20260;-78
2022/05/11 12:50:39;;;;;;;10.90;10.60;;;30.20;99.90;;;;;;5097174;28;20246;-78
2022/05/11 12:53:28;;;;;;;11.00;10.70;;;29.90;99.90;;;;;;5098424;28;20218;-77
2022/05/11 12:56:15;;;;;;;11.00;10.70;;;30.00;99.90;;;;;;5098260;28;20224;-77
2022/05/11 12:58:55;;;;;;;11.23;10.93;;;30.40;99.90;;;;;;5102593;28;20236;-79
2022/05/11 13:01:31;;;;;;;11.20;10.90;;;30.70;99.90;;;;;;5098602;28;20256;-78
2022/05/11 13:04:08;;;;;;;11.05;10.75;;;30.80;99.90;;;;;;5089957;28;20282;-78
2022/05/11 13:06:46;;;;;;;10.98;10.68;;;31.10;99.90;;;;;;5085468;28;20230;-79
2022/05/11 13:09:24;;;;;;;11.00;10.70;;;31.20;99.90;;;;;;5082422;28;20245;-78
2022/05/11 13:11:54;;;;;;;11.00;10.70;;;30.90;99.90;;;;;;5082549;28;20229;-78
2022/05/11 13:14:31;;;;;;;11.20;10.90;;;30.80;99.90;;;;;;5082827;28;20245;-77
2022/05/11 13:17:04;;;;;;;11.00;10.70;;;30.90;99.90;;;;;;5086342;28;20250;-77
2022/05/11 13:19:34;;;;;;;10.90;10.60;;;30.80;99.90;;;;;;5094031;28;20233;-77
2022/05/11 13:22:10;;;;;;;10.95;10.65;;;30.70;99.90;;;;;;5090275;28;20245;-79
2022/05/11 13:27:25;;;;;;;10.57;10.27;;;30.30;99.90;;;;;;5122861;22;20229;-79
2022/05/11 13:30:16;;;;;;;10.50;10.20;;;30.20;99.90;;;;;;5102283;28;20229;-80
2022/05/11 13:32:47;;;;;;;10.60;10.30;;;30.50;99.90;;;;;;5090068;28;20241;-80
2022/05/11 13:35:22;;;;;;;10.38;10.07;;;30.90;99.90;;;;;;5079336;28;20241;-79
2022/05/11 13:38:05;;;;;;;10.15;9.85;;;31.30;99.90;;;;;;5080619;28;20238;-79
2022/05/11 13:40:38;;;;;;;10.10;9.80;;;31.20;99.90;;;;;;5083315;28;20233;-80
2022/05/11 13:43:19;;;;;;;10.20;9.90;;;31.20;99.90;;;;;;5090851;28;20299;-79
2022/05/11 13:46:00;;;;;;;10.15;9.85;;;31.30;99.90;;;;;;5101514;28;20226;-80
2022/05/11 13:48:33;;;;;;;10.32;10.02;;;31.60;99.90;;;;;;5100155;28;20229;-79
2022/05/11 13:51:14;;;;;;;11.10;10.80;;;32.00;99.90;;;;;;5101554;28;20233;-80
2022/05/11 13:53:47;;;;;;;11.05;10.75;;;32.20;99.90;;;;;;5100795;28;20239;-80
2022/05/11 13:56:26;;;;;;;10.95;10.65;;;32.00;99.90;;;;;;5100849;28;20233;-80
2022/05/11 13:59:16;;;;;;;10.90;10.60;;;31.90;99.90;;;;;;5101586;28;20236;-80
2022/05/11 14:01:47;;;;;;;11.18;10.88;;;31.70;99.90;;;;;;5099930;28;20217;-78
2022/05/11 14:04:23;;;;;;;11.10;10.80;;;31.50;99.90;;;;;;5098762;28;20241;-80
2022/05/11 14:07:00;;;;;;;11.10;10.80;;;31.30;99.90;;;;;;5085611;28;20234;-84
2022/05/11 14:09:32;;;;;;;11.07;10.77;;;31.10;99.90;;;;;;5080498;28;20364;-82
2022/05/11 14:12:00;;;;;;;10.95;10.65;;;31.10;99.90;;;;;;5080627;28;20230;-83